sensor_id;sensor_type;location;lat;lon;timestamp;pressure;altitude;pressure_sealevel;temperature;humidity
44140;BME280;29803;51.048;4.686;2023-08-08T00:01:25;101577.50;;;14.07;100.00
44140;BME280;29803;51.048;4.686;2023-08-08T00:03:56;101575.97;;;14.05;100.00
44140;BME280;29803;51.048;4.686;2023-08-08T00:06:26;101571.59;;;14.04;100.00
44140;BME280;29803;51.048;4.686;2023-08-08T00:08:57;101575.81;;;13.98;100.00
44140;BME280;29803;51.048;4.686;2023-08-08T00:11:27;101574.47;;;13.94;100.00
44140;BME280;29803;51.048;4.686;2023-08-08T00:13:58;101568.88;;;14.12;100.00
44140;BME280;29803;51.048;4.686;2023-08-08T00:16:28;101575.50;;;14.01;100.00
44140;BME280;29803;51.048;4.686;2023-08-08T00:18:59;101571.91;;;14.00;100.00
44140;BME280;29803;51.048;4.686;2023-08-08T00:21:29;101566.56;;;13.92;100.00
44140;BME280;29803;51.048;4.686;2023-08-08T00:24:00;101572.13;;;13.83;100.00
44140;BME280;29803;51.048;4.686;2023-08-08T00:26:30;101567.91;;;13.80;100.00
44140;BME280;29803;51.048;4.686;2023-08-08T00:29:01;101558.50;;;13.76;100.00
44140;BME280;29803;51.048;4.686;2023-08-08T00:31:31;101568.59;;;13.74;100.00
44140;BME280;29803;51.048;4.686;2023-08-08T00:34:02;101569.28;;;13.68;100.00
44140;BME280;29803;51.048;4.686;2023-08-08T00:36:32;101563.69;;;13.69;100.00
44140;BME280;29803;51.048;4.686;2023-08-08T00:39:03;101570.09;;;13.68;100.00
44140;BME280;29803;51.048;4.686;2023-08-08T00:41:33;101567.72;;;13.65;100.00
44140;BME280;29803;51.048;4.686;2023-08-08T00:44:04;101566.06;;;13.64;100.00
44140;BME280;29803;51.048;4.686;2023-08-08T00:46:34;101561.88;;;13.62;100.00
44140;BME280;29803;51.048;4.686;2023-08-08T00:49:05;101558.31;;;13.69;100.00
44140;BME280;29803;51.048;4.686;2023-08-08T00:51:35;101553.75;;;13.70;100.00
44140;BME280;29803;51.048;4.686;2023-08-08T00:54:06;101552.91;;;13.69;100.00
44140;BME280;29803;51.048;4.686;2023-08-08T00:56:37;101559.31;;;13.68;100.00
44140;BME280;29803;51.048;4.686;2023-08-08T00:59:08;101557.66;;;13.67;100.00
44140;BME280;29803;51.048;4.686;2023-08-08T01:01:41;101554.78;;;13.61;100.00
44140;BME280;29803;51.048;4.686;2023-08-08T01:04:12;101556.47;;;13.62;100.00
44140;BME280;29803;51.048;4.686;2023-08-08T01:06:54;101552.41;;;13.58;100.00
44140;BME280;29803;51.048;4.686;2023-08-08T01:09:46;101551.91;;;13.62;100.00
44140;BME280;29803;51.048;4.686;2023-08-08T01:12:19;101550.72;;;13.65;100.00
44140;BME280;29803;51.048;4.686;2023-08-08T01:14:50;101551.56;;;13.65;100.00
44140;BME280;29803;51.048;4.686;2023-08-08T01:17:21;101556.47;;;13.62;100.00
44140;BME280;29803;51.048;4.686;2023-08-08T01:19:52;101557.13;;;13.64;100.00
44140;BME280;29803;51.048;4.686;2023-08-08T01:22:25;101549.91;;;13.56;100.00
44140;BME280;29803;51.048;4.686;2023-08-08T01:25:00;101549.53;;;13.59;100.00
44140;BME280;29803;51.048;4.686;2023-08-08T01:27:31;101546.84;;;13.59;100.00
44140;BME280;29803;51.048;4.686;2023-08-08T01:30:02;101544.34;;;13.58;100.00
44140;BME280;29803;51.048;4.686;2023-08-08T01:32:34;101554.78;;;13.53;100.00
44140;BME280;29803;51.048;4.686;2023-08-08T01:35:05;101542.31;;;13.52;100.00
44140;BME280;29803;51.048;4.686;2023-08-08T01:37:41;101544.19;;;13.51;100.00
44140;BME280;29803;51.048;4.686;2023-08-08T01:40:16;101544.19;;;13.51;100.00
44140;BME280;29803;51.048;4.686;2023-08-08T01:42:47;101538.09;;;13.49;100.00
44140;BME280;29803;51.048;4.686;2023-08-08T01:45:19;101541.28;;;13.44;100.00
44140;BME280;29803;51.048;4.686;2023-08-08T01:47:51;101540.81;;;13.41;100.00
44140;BME280;29803;51.048;4.686;2023-08-08T01:50:22;101535.06;;;13.44;100.00
44140;BME280;29803;51.048;4.686;2023-08-08T01:52:53;101535.75;;;13.62;100.00
44140;BME280;29803;51.048;4.686;2023-08-08T01:55:24;101535.75;;;13.62;100.00
44140;BME280;29803;51.048;4.686;2023-08-08T01:57:55;101533.22;;;13.61;100.00
44140;BME280;29803;51.048;4.686;2023-08-08T02:00:26;101533.22;;;13.53;100.00
44140;BME280;29803;51.048;4.686;2023-08-08T02:02:56;101530.50;;;13.53;100.00
44140;BME280;29803;51.048;4.686;2023-08-08T02:05:28;101533.03;;;13.54;100.00
44140;BME280;29803;51.048;4.686;2023-08-08T02:07:59;101527.50;;;13.56;100.00
44140;BME280;29803;51.048;4.686;2023-08-08T02:10:29;101533.72;;;13.56;100.00
44140;BME280;29803;51.048;4.686;2023-08-08T02:13:00;101528.16;;;13.50;100.00
44140;BME280;29803;51.048;4.686;2023-08-08T02:15:32;101529.16;;;13.48;100.00
44140;BME280;29803;51.048;4.686;2023-08-08T02:18:03;101522.28;;;13.46;100.00
44140;BME280;29803;51.048;4.686;2023-08-08T02:20:34;101523.63;;;13.42;100.00
44140;BME280;29803;51.048;4.686;2023-08-08T02:23:05;101521.94;;;13.41;100.00
44140;BME280;29803;51.048;4.686;2023-08-08T02:25:38;101529.34;;;13.39;100.00
44140;BME280;29803;51.048;4.686;2023-08-08T02:28:08;101517.53;;;13.40;100.00
44140;BME280;29803;51.048;4.686;2023-08-08T02:30:40;101526.31;;;13.42;100.00
44140;BME280;29803;51.048;4.686;2023-08-08T02:33:11;101517.88;;;13.37;100.00
44140;BME280;29803;51.048;4.686;2023-08-08T02:35:42;101525.13;;;13.36;100.00
44140;BME280;29803;51.048;4.686;2023-08-08T02:38:12;101520.59;;;13.37;100.00
44140;BME280;29803;51.048;4.686;2023-08-08T02:40:43;101509.44;;;13.40;100.00
44140;BME280;29803;51.048;4.686;2023-08-08T02:43:13;101506.09;;;13.38;100.00
44140;BME280;29803;51.048;4.686;2023-08-08T02:45:44;101510.63;;;13.37;100.00
44140;BME280;29803;51.048;4.686;2023-08-08T02:48:15;101500.03;;;13.36;100.00
44140;BME280;29803;51.048;4.686;2023-08-08T02:50:45;101497.34;;;13.36;100.00
44140;BME280;29803;51.048;4.686;2023-08-08T02:53:16;101504.06;;;13.32;100.00
44140;BME280;29803;51.048;4.686;2023-08-08T02:55:47;101503.56;;;13.36;100.00
44140;BME280;29803;51.048;4.686;2023-08-08T02:58:17;101506.41;;;13.35;100.00
44140;BME280;29803;51.048;4.686;2023-08-08T03:00:48;101501.03;;;13.35;100.00
44140;BME280;29803;51.048;4.686;2023-08-08T03:03:18;101499.69;;;13.31;100.00
44140;BME280;29803;51.048;4.686;2023-08-08T03:05:49;101497.34;;;13.28;100.00
44140;BME280;29803;51.048;4.686;2023-08-08T03:08:19;101500.34;;;13.25;100.00
44140;BME280;29803;51.048;4.686;2023-08-08T03:10:50;101505.06;;;13.23;100.00
44140;BME280;29803;51.048;4.686;2023-08-08T03:13:20;101500.34;;;13.25;100.00
44140;BME280;29803;51.048;4.686;2023-08-08T03:15:52;101501.53;;;13.22;100.00
44140;BME280;29803;51.048;4.686;2023-08-08T03:18:23;101497.16;;;13.29;100.00
44140;BME280;29803;51.048;4.686;2023-08-08T03:20:54;101497.00;;;13.31;100.00
44140;BME280;29803;51.048;4.686;2023-08-08T03:23:25;101488.06;;;13.30;100.00
44140;BME280;29803;51.048;4.686;2023-08-08T03:25:55;101490.75;;;13.30;100.00
44140;BME280;29803;51.048;4.686;2023-08-08T03:28:26;101495.81;;;13.25;100.00
44140;BME280;29803;51.048;4.686;2023-08-08T03:30:57;101488.91;;;13.23;100.00
44140;BME280;29803;51.048;4.686;2023-08-08T03:33:27;101487.91;;;13.24;100.00
44140;BME280;29803;51.048;4.686;2023-08-08T03:35:58;101488.22;;;13.20;100.00
44140;BME280;29803;51.048;4.686;2023-08-08T03:38:28;101494.59;;;13.19;100.00
44140;BME280;29803;51.048;4.686;2023-08-08T03:40:59;101489.19;;;13.19;100.00
44140;BME280;29803;51.048;4.686;2023-08-08T03:43:29;101491.25;;;13.17;100.00
44140;BME280;29803;51.048;4.686;2023-08-08T03:46:00;101491.41;;;13.16;100.00
44140;BME280;29803;51.048;4.686;2023-08-08T03:48:30;101493.09;;;13.17;100.00
44140;BME280;29803;51.048;4.686;2023-08-08T03:51:01;101494.25;;;13.14;100.00
44140;BME280;29803;51.048;4.686;2023-08-08T03:53:32;101487.34;;;13.04;100.00
44140;BME280;29803;51.048;4.686;2023-08-08T03:56:03;101489.72;;;13.07;100.00
44140;BME280;29803;51.048;4.686;2023-08-08T03:58:33;101491.22;;;13.09;100.00
44140;BME280;29803;51.048;4.686;2023-08-08T04:01:04;101492.56;;;13.13;100.00
44140;BME280;29803;51.048;4.686;2023-08-08T04:03:34;101482.16;;;13.10;100.00
44140;BME280;29803;51.048;4.686;2023-08-08T04:06:05;101487.69;;;13.09;100.00
44140;BME280;29803;51.048;4.686;2023-08-08T04:08:36;101487.03;;;13.07;100.00
44140;BME280;29803;51.048;4.686;2023-08-08T04:11:06;101487.88;;;13.07;100.00
44140;BME280;29803;51.048;4.686;2023-08-08T04:13:36;101483.50;;;13.06;100.00
44140;BME280;29803;51.048;4.686;2023-08-08T04:16:07;101481.13;;;13.03;100.00
44140;BME280;29803;51.048;4.686;2023-08-08T04:18:37;101479.75;;;12.99;100.00
44140;BME280;29803;51.048;4.686;2023-08-08T04:21:08;101468.50;;;13.04;100.00
44140;BME280;29803;51.048;4.686;2023-08-08T04:23:38;101467.00;;;13.01;100.00
44140;BME280;29803;51.048;4.686;2023-08-08T04:26:09;101466.28;;;12.99;100.00
44140;BME280;29803;51.048;4.686;2023-08-08T04:28:39;101467.31;;;12.98;100.00
44140;BME280;29803;51.048;4.686;2023-08-08T04:31:10;101464.63;;;12.98;100.00
44140;BME280;29803;51.048;4.686;2023-08-08T04:33:40;101472.69;;;12.98;100.00
44140;BME280;29803;51.048;4.686;2023-08-08T04:36:11;101473.03;;;13.19;100.00
44140;BME280;29803;51.048;4.686;2023-08-08T04:38:42;101474.59;;;13.22;100.00
44140;BME280;29803;51.048;4.686;2023-08-08T04:41:12;101473.41;;;13.25;100.00
44140;BME280;29803;51.048;4.686;2023-08-08T04:43:43;101470.72;;;13.25;100.00
44140;BME280;29803;51.048;4.686;2023-08-08T04:46:13;101470.56;;;13.26;100.00
44140;BME280;29803;51.048;4.686;2023-08-08T04:48:44;101475.59;;;13.29;100.00
44140;BME280;29803;51.048;4.686;2023-08-08T04:51:14;101478.28;;;13.29;100.00
44140;BME280;29803;51.048;4.686;2023-08-08T04:53:45;101480.16;;;13.29;100.00
44140;BME280;29803;51.048;4.686;2023-08-08T04:56:15;101475.44;;;13.31;100.00
44140;BME280;29803;51.048;4.686;2023-08-08T04:58:46;101469.03;;;13.32;100.00
44140;BME280;29803;51.048;4.686;2023-08-08T05:01:16;101474.91;;;13.35;100.00
44140;BME280;29803;51.048;4.686;2023-08-08T05:03:48;101476.28;;;13.39;100.00
44140;BME280;29803;51.048;4.686;2023-08-08T05:06:18;101470.56;;;13.42;100.00
44140;BME280;29803;51.048;4.686;2023-08-08T05:08:51;101477.94;;;13.48;100.00
44140;BME280;29803;51.048;4.686;2023-08-08T05:11:22;101471.03;;;13.54;100.00
44140;BME280;29803;51.048;4.686;2023-08-08T05:13:52;101475.91;;;13.59;100.00
44140;BME280;29803;51.048;4.686;2023-08-08T05:16:23;101468.84;;;13.58;100.00
44140;BME280;29803;51.048;4.686;2023-08-08T05:18:54;101474.91;;;13.68;100.00
44140;BME280;29803;51.048;4.686;2023-08-08T05:21:25;101474.56;;;13.71;100.00
44140;BME280;29803;51.048;4.686;2023-08-08T05:23:55;101478.44;;;13.77;100.00
44140;BME280;29803;51.048;4.686;2023-08-08T05:26:26;101480.75;;;13.80;100.00
44140;BME280;29803;51.048;4.686;2023-08-08T05:28:57;101484.81;;;13.84;100.00
44140;BME280;29803;51.048;4.686;2023-08-08T05:31:27;101479.91;;;13.87;100.00
44140;BME280;29803;51.048;4.686;2023-08-08T05:33:58;101475.50;;;13.94;100.00
44140;BME280;29803;51.048;4.686;2023-08-08T05:36:28;101490.00;;;14.02;100.00
44140;BME280;29803;51.048;4.686;2023-08-08T05:38:59;101490.31;;;14.07;100.00
44140;BME280;29803;51.048;4.686;2023-08-08T05:41:29;101489.28;;;14.16;100.00
44140;BME280;29803;51.048;4.686;2023-08-08T05:44:00;101483.66;;;14.25;100.00
44140;BME280;29803;51.048;4.686;2023-08-08T05:46:30;101500.50;;;14.36;100.00
44140;BME280;29803;51.048;4.686;2023-08-08T05:49:01;101504.81;;;14.45;100.00
44140;BME280;29803;51.048;4.686;2023-08-08T05:51:31;101507.34;;;14.55;100.00
44140;BME280;29803;51.048;4.686;2023-08-08T05:54:02;101510.16;;;14.69;100.00
44140;BME280;29803;51.048;4.686;2023-08-08T05:56:35;101507.72;;;14.83;100.00
44140;BME280;29803;51.048;4.686;2023-08-08T05:59:06;101513.34;;;14.96;100.00
44140;BME280;29803;51.048;4.686;2023-08-08T06:01:37;101510.72;;;15.11;100.00
44140;BME280;29803;51.048;4.686;2023-08-08T06:04:07;101511.88;;;15.39;100.00
44140;BME280;29803;51.048;4.686;2023-08-08T06:06:38;101512.91;;;15.76;100.00
44140;BME280;29803;51.048;4.686;2023-08-08T06:09:08;101510.78;;;16.45;100.00
44140;BME280;29803;51.048;4.686;2023-08-08T06:11:39;101516.34;;;16.88;100.00
44140;BME280;29803;51.048;4.686;2023-08-08T06:14:09;101519.53;;;17.13;100.00
44140;BME280;29803;51.048;4.686;2023-08-08T06:16:40;101516.75;;;17.28;100.00
44140;BME280;29803;51.048;4.686;2023-08-08T06:19:11;101509.44;;;17.50;100.00
44140;BME280;29803;51.048;4.686;2023-08-08T06:21:44;101508.81;;;17.48;100.00
44140;BME280;29803;51.048;4.686;2023-08-08T06:24:14;101502.88;;;17.38;100.00
44140;BME280;29803;51.048;4.686;2023-08-08T06:26:45;101514.31;;;17.33;100.00
44140;BME280;29803;51.048;4.686;2023-08-08T06:29:15;101510.09;;;17.30;100.00
44140;BME280;29803;51.048;4.686;2023-08-08T06:31:46;101517.00;;;17.12;100.00
44140;BME280;29803;51.048;4.686;2023-08-08T06:34:16;101514.09;;;17.13;100.00
44140;BME280;29803;51.048;4.686;2023-08-08T06:36:47;101520.56;;;17.12;100.00
44140;BME280;29803;51.048;4.686;2023-08-08T06:39:18;101512.03;;;17.15;100.00
44140;BME280;29803;51.048;4.686;2023-08-08T06:41:51;101515.56;;;16.94;100.00
44140;BME280;29803;51.048;4.686;2023-08-08T06:44:22;101506.66;;;17.00;100.00
44140;BME280;29803;51.048;4.686;2023-08-08T06:46:52;101511.66;;;17.18;100.00
44140;BME280;29803;51.048;4.686;2023-08-08T06:49:23;101503.09;;;17.92;100.00
44140;BME280;29803;51.048;4.686;2023-08-08T06:51:53;101506.75;;;18.47;100.00
44140;BME280;29803;51.048;4.686;2023-08-08T06:54:24;101510.47;;;18.81;100.00
44140;BME280;29803;51.048;4.686;2023-08-08T06:56:54;101512.78;;;18.91;100.00
44140;BME280;29803;51.048;4.686;2023-08-08T06:59:27;101524.50;;;18.84;100.00
44140;BME280;29803;51.048;4.686;2023-08-08T07:01:57;101516.41;;;18.56;100.00
44140;BME280;29803;51.048;4.686;2023-08-08T07:04:28;101516.03;;;18.66;100.00
44140;BME280;29803;51.048;4.686;2023-08-08T07:06:58;101510.56;;;18.53;100.00
44140;BME280;29803;51.048;4.686;2023-08-08T07:09:29;101507.16;;;18.44;100.00
44140;BME280;29803;51.048;4.686;2023-08-08T07:11:59;101501.97;;;18.56;100.00
44140;BME280;29803;51.048;4.686;2023-08-08T07:14:30;101496.31;;;18.57;100.00
44140;BME280;29803;51.048;4.686;2023-08-08T07:17:00;101499.22;;;18.43;100.00
44140;BME280;29803;51.048;4.686;2023-08-08T07:19:35;101493.81;;;18.49;100.00
44140;BME280;29803;51.048;4.686;2023-08-08T07:22:07;101497.53;;;18.42;100.00
44140;BME280;29803;51.048;4.686;2023-08-08T07:24:38;101494.19;;;18.40;100.00
44140;BME280;29803;51.048;4.686;2023-08-08T07:27:09;101493.38;;;18.46;100.00
44140;BME280;29803;51.048;4.686;2023-08-08T07:29:39;101485.56;;;18.77;100.00
44140;BME280;29803;51.048;4.686;2023-08-08T07:32:10;101491.09;;;19.24;100.00
44140;BME280;29803;51.048;4.686;2023-08-08T07:34:41;101487.97;;;19.20;100.00
44140;BME280;29803;51.048;4.686;2023-08-08T07:37:11;101484.38;;;19.00;100.00
44140;BME280;29803;51.048;4.686;2023-08-08T07:39:42;101486.22;;;18.79;100.00
44140;BME280;29803;51.048;4.686;2023-08-08T07:42:12;101483.41;;;18.66;100.00
44140;BME280;29803;51.048;4.686;2023-08-08T07:44:43;101491.75;;;18.58;100.00
44140;BME280;29803;51.048;4.686;2023-08-08T07:47:13;101500.91;;;18.44;100.00
44140;BME280;29803;51.048;4.686;2023-08-08T07:49:44;101491.31;;;18.54;100.00
44140;BME280;29803;51.048;4.686;2023-08-08T07:52:14;101493.22;;;18.60;100.00
44140;BME280;29803;51.048;4.686;2023-08-08T07:54:45;101487.13;;;18.52;100.00
44140;BME280;29803;51.048;4.686;2023-08-08T07:57:15;101488.38;;;18.49;100.00
44140;BME280;29803;51.048;4.686;2023-08-08T07:59:46;101477.28;;;18.51;100.00
44140;BME280;29803;51.048;4.686;2023-08-08T08:02:16;101489.19;;;18.43;100.00
44140;BME280;29803;51.048;4.686;2023-08-08T08:04:46;101484.97;;;18.41;100.00
44140;BME280;29803;51.048;4.686;2023-08-08T08:07:17;101479.25;;;18.22;100.00
44140;BME280;29803;51.048;4.686;2023-08-08T08:09:47;101476.84;;;18.41;100.00
44140;BME280;29803;51.048;4.686;2023-08-08T08:12:18;101491.53;;;18.53;100.00
44140;BME280;29803;51.048;4.686;2023-08-08T08:14:49;101487.44;;;18.70;100.00
44140;BME280;29803;51.048;4.686;2023-08-08T08:17:20;101485.16;;;18.74;100.00
44140;BME280;29803;51.048;4.686;2023-08-08T08:19:51;101485.47;;;18.57;100.00
44140;BME280;29803;51.048;4.686;2023-08-08T08:22:21;101483.22;;;18.68;100.00
44140;BME280;29803;51.048;4.686;2023-08-08T08:24:52;101484.72;;;18.77;100.00
44140;BME280;29803;51.048;4.686;2023-08-08T08:27:22;101485.19;;;18.94;100.00
44140;BME280;29803;51.048;4.686;2023-08-08T08:29:53;101485.63;;;19.10;100.00
44140;BME280;29803;51.048;4.686;2023-08-08T08:32:23;101482.31;;;19.15;100.00
44140;BME280;29803;51.048;4.686;2023-08-08T08:34:54;101490.72;;;19.53;100.00
44140;BME280;29803;51.048;4.686;2023-08-08T08:37:24;101501.78;;;19.52;100.00
44140;BME280;29803;51.048;4.686;2023-08-08T08:39:54;101492.97;;;19.36;100.00
44140;BME280;29803;51.048;4.686;2023-08-08T08:42:26;101483.53;;;18.99;100.00
44140;BME280;29803;51.048;4.686;2023-08-08T08:44:59;101492.94;;;18.90;100.00
44140;BME280;29803;51.048;4.686;2023-08-08T08:47:30;101495.03;;;18.88;100.00
44140;BME280;29803;51.048;4.686;2023-08-08T08:50:01;101495.66;;;18.97;100.00
44140;BME280;29803;51.048;4.686;2023-08-08T08:52:33;101496.47;;;18.91;100.00
44140;BME280;29803;51.048;4.686;2023-08-08T08:55:04;101499.63;;;18.94;100.00
44140;BME280;29803;51.048;4.686;2023-08-08T08:57:36;101493.16;;;19.02;100.00
44140;BME280;29803;51.048;4.686;2023-08-08T09:00:07;101493.16;;;19.02;100.00
44140;BME280;29803;51.048;4.686;2023-08-08T09:02:38;101491.44;;;18.87;100.00
44140;BME280;29803;51.048;4.686;2023-08-08T09:05:09;101491.25;;;18.96;100.00
44140;BME280;29803;51.048;4.686;2023-08-08T09:07:41;101491.09;;;19.04;100.00
44140;BME280;29803;51.048;4.686;2023-08-08T09:10:14;101494.41;;;18.99;100.00
44140;BME280;29803;51.048;4.686;2023-08-08T09:12:45;101491.69;;;19.06;100.00
44140;BME280;29803;51.048;4.686;2023-08-08T09:15:16;101496.53;;;19.24;100.00
44140;BME280;29803;51.048;4.686;2023-08-08T09:17:48;101487.34;;;19.45;100.00
44140;BME280;29803;51.048;4.686;2023-08-08T09:20:18;101493.44;;;19.60;100.00
44140;BME280;29803;51.048;4.686;2023-08-08T09:22:51;101489.66;;;19.54;100.00
44140;BME280;29803;51.048;4.686;2023-08-08T09:25:23;101494.22;;;19.27;100.00
44140;BME280;29803;51.048;4.686;2023-08-08T09:27:55;101494.63;;;19.11;100.00
44140;BME280;29803;51.048;4.686;2023-08-08T09:30:25;101498.63;;;19.15;100.00
44140;BME280;29803;51.048;4.686;2023-08-08T09:33:00;101492.38;;;19.41;100.00
44140;BME280;29803;51.048;4.686;2023-08-08T09:35:31;101487.16;;;19.33;100.00
44140;BME280;29803;51.048;4.686;2023-08-08T09:38:01;101494.47;;;19.46;100.00
44140;BME280;29803;51.048;4.686;2023-08-08T09:40:32;101497.81;;;19.67;100.00
44140;BME280;29803;51.048;4.686;2023-08-08T09:43:03;101506.22;;;19.59;100.00
44140;BME280;29803;51.048;4.686;2023-08-08T09:45:49;101511.84;;;19.45;100.00
44140;BME280;29803;51.048;4.686;2023-08-08T09:48:20;101523.13;;;19.41;100.00
44140;BME280;29803;51.048;4.686;2023-08-08T09:50:50;101509.09;;;19.31;100.00
44140;BME280;29803;51.048;4.686;2023-08-08T09:53:22;101511.38;;;19.14;100.00
44140;BME280;29803;51.048;4.686;2023-08-08T09:55:54;101507.78;;;19.01;100.00
44140;BME280;29803;51.048;4.686;2023-08-08T09:58:25;101519.28;;;18.83;100.00
44140;BME280;29803;51.048;4.686;2023-08-08T10:00:56;101518.81;;;18.73;100.00
44140;BME280;29803;51.048;4.686;2023-08-08T10:03:27;101520.38;;;18.54;100.00
44140;BME280;29803;51.048;4.686;2023-08-08T10:05:58;101505.97;;;18.60;100.00
44140;BME280;29803;51.048;4.686;2023-08-08T10:08:30;101512.78;;;18.84;100.00
44140;BME280;29803;51.048;4.686;2023-08-08T10:11:01;101511.34;;;18.88;100.00
44140;BME280;29803;51.048;4.686;2023-08-08T10:13:32;101514.50;;;18.98;100.00
44140;BME280;29803;51.048;4.686;2023-08-08T10:16:07;101522.88;;;19.10;100.00
44140;BME280;29803;51.048;4.686;2023-08-08T10:18:38;101522.69;;;19.31;100.00
44140;BME280;29803;51.048;4.686;2023-08-08T10:21:09;101515.59;;;19.57;100.00
44140;BME280;29803;51.048;4.686;2023-08-08T10:23:40;101518.75;;;19.80;100.00
44140;BME280;29803;51.048;4.686;2023-08-08T10:26:19;101529.44;;;19.75;100.00
44140;BME280;29803;51.048;4.686;2023-08-08T10:29:17;101523.38;;;19.73;100.00
44140;BME280;29803;51.048;4.686;2023-08-08T10:32:04;101522.09;;;19.82;100.00
44140;BME280;29803;51.048;4.686;2023-08-08T10:37:24;101513.94;;;19.89;100.00
44140;BME280;29803;51.048;4.686;2023-08-08T10:39:58;101496.13;;;19.86;100.00
44140;BME280;29803;51.048;4.686;2023-08-08T10:42:29;101509.97;;;19.85;100.00
44140;BME280;29803;51.048;4.686;2023-08-08T10:45:01;101507.88;;;19.80;100.00
44140;BME280;29803;51.048;4.686;2023-08-08T10:47:35;101496.56;;;19.70;100.00
44140;BME280;29803;51.048;4.686;2023-08-08T10:50:07;101504.50;;;20.05;100.00
44140;BME280;29803;51.048;4.686;2023-08-08T10:55:25;101474.72;;;20.68;100.00
44140;BME280;29803;51.048;4.686;2023-08-08T11:00:50;101481.38;;;20.79;100.00
44140;BME280;29803;51.048;4.686;2023-08-08T11:03:22;101479.78;;;20.64;100.00
44140;BME280;29803;51.048;4.686;2023-08-08T11:05:54;101471.94;;;20.30;100.00
44140;BME280;29803;51.048;4.686;2023-08-08T11:08:25;101479.84;;;20.38;100.00
44140;BME280;29803;51.048;4.686;2023-08-08T11:10:55;101478.44;;;20.80;100.00
44140;BME280;29803;51.048;4.686;2023-08-08T11:13:26;101488.56;;;21.05;100.00
44140;BME280;29803;51.048;4.686;2023-08-08T11:15:57;101488.81;;;20.97;100.00
44140;BME280;29803;51.048;4.686;2023-08-08T11:18:28;101483.59;;;20.57;100.00
44140;BME280;29803;51.048;4.686;2023-08-08T11:20:58;101477.94;;;20.45;100.00
44140;BME280;29803;51.048;4.686;2023-08-08T11:23:29;101480.06;;;20.36;100.00
44140;BME280;29803;51.048;4.686;2023-08-08T11:26:01;101475.94;;;20.21;100.00
44140;BME280;29803;51.048;4.686;2023-08-08T11:28:31;101475.72;;;20.22;100.00
44140;BME280;29803;51.048;4.686;2023-08-08T11:31:02;101470.34;;;20.09;100.00
44140;BME280;29803;51.048;4.686;2023-08-08T11:33:33;101474.09;;;20.01;100.00
44140;BME280;29803;51.048;4.686;2023-08-08T11:36:03;101476.22;;;19.92;100.00
44140;BME280;29803;51.048;4.686;2023-08-08T11:38:35;101486.06;;;19.87;100.00
44140;BME280;29803;51.048;4.686;2023-08-08T11:41:05;101491.97;;;19.84;100.00
44140;BME280;29803;51.048;4.686;2023-08-08T11:43:55;101485.22;;;20.00;100.00
44140;BME280;29803;51.048;4.686;2023-08-08T11:46:26;101484.75;;;20.16;100.00
44140;BME280;29803;51.048;4.686;2023-08-08T11:49:15;101484.69;;;20.36;100.00
44140;BME280;29803;51.048;4.686;2023-08-08T11:51:46;101479.97;;;20.63;100.00
44140;BME280;29803;51.048;4.686;2023-08-08T11:54:16;101490.94;;;20.94;100.00
44140;BME280;29803;51.048;4.686;2023-08-08T11:56:49;101483.41;;;21.21;100.00
44140;BME280;29803;51.048;4.686;2023-08-08T11:59:19;101495.38;;;21.20;100.00
44140;BME280;29803;51.048;4.686;2023-08-08T12:01:50;101491.38;;;20.91;100.00
44140;BME280;29803;51.048;4.686;2023-08-08T12:04:20;101479.56;;;20.66;100.00
44140;BME280;29803;51.048;4.686;2023-08-08T12:07:00;101477.94;;;20.52;100.00
44140;BME280;29803;51.048;4.686;2023-08-08T12:09:31;101472.25;;;20.60;100.00
44140;BME280;29803;51.048;4.686;2023-08-08T12:12:03;101471.25;;;20.86;100.00
44140;BME280;29803;51.048;4.686;2023-08-08T12:14:37;101473.16;;;20.85;100.00
44140;BME280;29803;51.048;4.686;2023-08-08T12:17:08;101470.03;;;20.82;100.00
44140;BME280;29803;51.048;4.686;2023-08-08T12:19:45;101469.91;;;20.70;100.00
44140;BME280;29803;51.048;4.686;2023-08-08T12:22:15;101466.81;;;20.91;100.00
44140;BME280;29803;51.048;4.686;2023-08-08T12:24:46;101458.50;;;21.11;100.00
44140;BME280;29803;51.048;4.686;2023-08-08T12:27:19;101461.78;;;20.95;100.00
44140;BME280;29803;51.048;4.686;2023-08-08T12:29:50;101461.50;;;20.72;100.00
44140;BME280;29803;51.048;4.686;2023-08-08T12:32:25;101456.97;;;20.52;100.00
44140;BME280;29803;51.048;4.686;2023-08-08T12:34:58;101456.50;;;20.62;100.00
44140;BME280;29803;51.048;4.686;2023-08-08T12:37:29;101450.75;;;20.77;100.00
44140;BME280;29803;51.048;4.686;2023-08-08T12:39:59;101454.66;;;20.94;100.00
44140;BME280;29803;51.048;4.686;2023-08-08T12:42:30;101444.47;;;21.39;100.00
44140;BME280;29803;51.048;4.686;2023-08-08T12:45:01;101442.88;;;21.75;100.00
44140;BME280;29803;51.048;4.686;2023-08-08T12:47:31;101440.09;;;21.57;100.00
44140;BME280;29803;51.048;4.686;2023-08-08T12:50:03;101443.97;;;21.67;100.00
44140;BME280;29803;51.048;4.686;2023-08-08T12:52:34;101439.75;;;21.71;100.00
44140;BME280;29803;51.048;4.686;2023-08-08T12:55:05;101436.88;;;21.41;100.00
44140;BME280;29803;51.048;4.686;2023-08-08T12:57:36;101431.59;;;21.46;100.00
44140;BME280;29803;51.048;4.686;2023-08-08T13:00:07;101434.56;;;21.63;100.00
44140;BME280;29803;51.048;4.686;2023-08-08T13:02:39;101433.22;;;21.54;100.00
44140;BME280;29803;51.048;4.686;2023-08-08T13:05:09;101448.28;;;21.57;100.00
44140;BME280;29803;51.048;4.686;2023-08-08T13:07:40;101452.19;;;21.42;100.00
44140;BME280;29803;51.048;4.686;2023-08-08T13:10:10;101449.94;;;21.58;100.00